TimePDT,TemperatureF,Dew PointF,Humidity,Sea Level PressureIn,VisibilityMPH,Wind Direction,Wind SpeedMPH,Gust SpeedMPH,PrecipitationIn,Events,Conditions,WindDirDegrees,DateUTC
12:56 AM,45.0,21.0,39,30.05,10.0,North,5.8,-,N/A,,Clear,350,2013-04-03 07:56:00
1:56 AM,45.0,24.1,44,30.05,10.0,NW,5.8,-,N/A,,Clear,320,2013-04-03 08:56:00
2:56 AM,39.9,21.9,49,30.05,10.0,North,3.5,-,N/A,,Clear,360,2013-04-03 09:56:00
3:56 AM,37.9,19.9,48,30.07,10.0,Calm,Calm,-,N/A,,Clear,0,2013-04-03 10:56:00
4:56 AM,37.9,21.0,51,30.07,10.0,WNW,5.8,-,N/A,,Clear,300,2013-04-03 11:56:00
5:56 AM,37.9,21.9,53,30.07,10.0,North,6.9,-,N/A,,Clear,350,2013-04-03 12:56:00
6:56 AM,36.0,21.9,57,30.09,10.0,NW,6.9,-,N/A,,Clear,310,2013-04-03 13:56:00
7:56 AM,46.9,25.0,42,30.10,10.0,NNW,3.5,-,N/A,,Clear,330,2013-04-03 14:56:00
8:56 AM,55.0,26.1,33,30.10,10.0,NNW,4.6,-,N/A,,Clear,330,2013-04-03 15:56:00
9:56 AM,61.0,26.1,26,30.09,10.0,NW,4.6,-,N/A,,Clear,320,2013-04-03 16:56:00
10:56 AM,64.9,24.1,21,30.08,10.0,Calm,Calm,-,N/A,,Clear,0,2013-04-03 17:56:00
11:56 AM,71.1,23.0,16,30.06,10.0,SSE,6.9,-,N/A,,Clear,150,2013-04-03 18:56:00
12:56 PM,73.0,21.9,15,30.03,10.0,SE,6.9,17.3,N/A,,Clear,140,2013-04-03 19:56:00
1:56 PM,75.9,19.0,12,29.99,10.0,SE,10.4,17.3,N/A,,Clear,130,2013-04-03 20:56:00
2:56 PM,78.1,16.0,10,29.97,10.0,SSW,11.5,18.4,N/A,,Clear,200,2013-04-03 21:56:00
3:56 PM,78.1,16.0,10,29.95,10.0,SSE,15.0,19.6,N/A,,Clear,150,2013-04-03 22:56:00
4:56 PM,79.0,18.0,10,29.92,10.0,SSE,13.8,20.7,N/A,,Clear,160,2013-04-03 23:56:00
5:56 PM,75.9,18.0,11,29.92,10.0,South,11.5,21.9,N/A,,Clear,170,2013-04-04 00:56:00
6:56 PM,72.0,21.9,15,29.93,10.0,SSE,16.1,-,N/A,,Clear,160,2013-04-04 01:56:00
7:56 PM,66.9,23.0,19,29.94,10.0,SSE,9.2,-,N/A,,Clear,150,2013-04-04 02:56:00
8:56 PM,66.0,24.1,20,29.94,10.0,SSE,13.8,-,N/A,,Clear,160,2013-04-04 03:56:00
9:56 PM,64.0,25.0,23,29.95,10.0,SE,12.7,-,N/A,,Clear,140,2013-04-04 04:56:00
10:56 PM,62.1,24.1,23,29.96,10.0,SSW,5.8,-,N/A,,Clear,200,2013-04-04 05:56:00
11:56 PM,57.0,25.0,29,29.96,10.0,SW,5.8,-,N/A,,Clear,220,2013-04-04 06:56:00